עמוד ראשי
METAR-TAF:

METAR-TAF

שדות תעופה :

Gullfaks, נורבגיה

קו רוחב: 61-02N, קו אורך: 002-02E, גובה: 10מטר

תצפית מזג אוויר נוכחית

הדו"ח נערך לפני 30דקות, בשעה 22:20 UTC
רוח 4קשר מכיוון צפון/צפון-מערב
טמפרטורת 9 צלסיוס
לחות 87%
לחץ 1017 hPa
ראות 10 קילומטר או יותר
עננים בינוניים בגובה 2000רגל

METAR: ENGC 182220Z 33004KT 9999 BKN020 09/07 Q1017 W07/S3

זמן: 00:50 (22:50 UTC)

תחזית

הדו"ח נערך לפני 2 שעות ו 50דקות, בשעה 20:00 UTC
תחזית בתוקף מ 18 ב 21 UTC עד 19 ב 21 UTC
רוח 10קשר מכיוון צפון/צפון-מערב
ראות 10 קילומטר או יותר
עננים פזורים בגובה 500רגל
עננים בינוניים בגובה 1500רגל
זמנית מ -
18 ב 21 UTC עד 19 ב 03 UTC
ראות: 3000מטר
עננים בינוניים בגובה 700רגל
טפטוף קל, אד
זמנית מ -
19 ב 06 UTC עד 19 ב 09 UTC
עננים בינוניים בגובה 1200רגל
ממטרי גשם
יעשה מ
19 ב 08 UTC עד 19 ב 10 UTC
רוח 15קשר מכיוון צפון-מזרח

TAF: ENGC 182000Z 1821/1921 34010KT 9999 SCT005 BKN015 TEMPO 1821/1903 3000 -DZ BR BKN007 TEMPO 1906/1909 SHRA BKN012 BECMG 1908/1910 04015KT

תצפיות ותחזיות מזג אוויר לגבי יותר מ- 4,000 שדות תעופה ברחבי העולם. דוחות METAR ו- TAF.

התחנות הזמינות מסומנות בנקודות צהובות ואדומות על גבי המפה.

העבר את העכבר לנקודה הצבעונית על מנת לראות את שם התחנה.

לאחר מכן, לחץ כדי לראות את תוכן ואת תחזיות מזג האוויר.

כדי לשנות את המפה: לחץ על הכפתורים הירוקים עם הפלוס השחור כדי להתקרב; על הכפתור הירוק עם המקף כדי להתרחק; או בחיצים הירוקים למפות סמוכות.


METAR-TAF: